Time;durP1;ratioP1;P1;durP2;ratioP2;P2;SDS_P1;SDS_P2;PMS_P1;PMS_P2;Temp;Humidity;BMP_temperature;BMP_pressure;BME280_temperature;BME280_humidity;BME280_pressure;Samples;Min_cycle;Max_cycle;Signal;HPM_P1;HPM_P2
2021/07/02 00:02:01;;;;;;;7.25;1.73;;;;;;;;;;4390211;32;20222;-56
2021/07/02 00:04:27;;;;;;;6.75;2.47;;;;;;;;;;4389001;32;20332;-55
2021/07/02 00:06:53;;;;;;;7.97;2.00;;;;;;;;;;4388876;32;20222;-55
2021/07/02 00:09:18;;;;;;;9.48;1.67;;;;;;;;;;4390229;32;20232;-56
2021/07/02 00:11:43;;;;;;;7.12;2.12;;;;;;;;;;4389450;32;20237;-56
2021/07/02 00:14:09;;;;;;;4.93;2.00;;;;;;;;;;4382779;32;20246;-56
2021/07/02 00:16:34;;;;;;;6.07;2.10;;;;;;;;;;4374960;32;20345;-57
2021/07/02 00:19:01;;;;;;;3.25;1.48;;;;;;;;;;4373793;32;20304;-56
2021/07/02 00:21:27;;;;;;;7.78;2.15;;;;;;;;;;4374819;32;20253;-56
2021/07/02 00:23:53;;;;;;;8.10;2.35;;;;;;;;;;4375036;32;20554;-55
2021/07/02 00:26:18;;;;;;;4.57;1.95;;;;;;;;;;4374944;32;20257;-56
2021/07/02 00:28:43;;;;;;;7.95;2.25;;;;;;;;;;4374899;32;20230;-55
2021/07/02 00:31:09;;;;;;;5.55;1.90;;;;;;;;;;4392937;32;20229;-55
2021/07/02 00:33:34;;;;;;;6.28;2.72;;;;;;;;;;4390360;32;20253;-55
2021/07/02 00:36:00;;;;;;;3.37;1.70;;;;;;;;;;4390353;32;20636;-55
2021/07/02 00:38:25;;;;;;;15.35;2.40;;;;;;;;;;4389858;32;20295;-55
2021/07/02 00:40:51;;;;;;;3.60;1.83;;;;;;;;;;4389974;32;20340;-55
2021/07/02 00:43:16;;;;;;;10.27;2.62;;;;;;;;;;4390195;32;20198;-56
2021/07/02 00:45:42;;;;;;;5.85;2.30;;;;;;;;;;4389866;32;20244;-55
2021/07/02 00:48:07;;;;;;;5.22;2.05;;;;;;;;;;4388381;32;20268;-55
2021/07/02 00:50:33;;;;;;;12.25;2.37;;;;;;;;;;4389828;32;20237;-55
2021/07/02 00:52:58;;;;;;;7.87;2.72;;;;;;;;;;4388645;32;20237;-55
2021/07/02 00:55:24;;;;;;;9.60;2.78;;;;;;;;;;4389728;32;20311;-55
2021/07/02 00:57:50;;;;;;;7.70;2.00;;;;;;;;;;4389520;32;20210;-55
2021/07/02 01:00:16;;;;;;;2.45;1.50;;;;;;;;;;4388237;32;20332;-55
2021/07/02 01:02:41;;;;;;;3.20;1.42;;;;;;;;;;4388175;32;20740;-55
2021/07/02 01:05:08;;;;;;;4.87;1.75;;;;;;;;;;4389659;32;20277;-55
2021/07/02 01:07:33;;;;;;;10.75;2.28;;;;;;;;;;4389346;32;20256;-56
2021/07/02 01:09:59;;;;;;;6.43;2.15;;;;;;;;;;4389182;32;20697;-56
2021/07/02 01:12:26;;;;;;;12.60;2.03;;;;;;;;;;4385621;32;20295;-55
2021/07/02 01:14:52;;;;;;;6.37;2.33;;;;;;;;;;4374071;32;20226;-55
2021/07/02 01:17:17;;;;;;;7.25;2.20;;;;;;;;;;4374134;32;20294;-55
2021/07/02 01:19:51;;;;;;;8.85;1.90;;;;;;;;;;4373984;32;20228;-55
2021/07/02 01:22:26;;;;;;;2.67;2.00;;;;;;;;;;4374077;32;20332;-55
2021/07/02 01:24:56;;;;;;;10.20;2.42;;;;;;;;;;4374049;32;20241;-55
2021/07/02 01:27:22;;;;;;;9.98;2.70;;;;;;;;;;4374044;32;20249;-55
2021/07/02 01:29:49;;;;;;;5.43;1.92;;;;;;;;;;4374241;32;20272;-55
2021/07/02 01:32:15;;;;;;;3.08;1.62;;;;;;;;;;4387279;32;20354;-56
2021/07/02 01:34:41;;;;;;;6.50;2.33;;;;;;;;;;4387542;32;20346;-56
2021/07/02 01:37:08;;;;;;;8.68;2.28;;;;;;;;;;4388916;32;20317;-55
2021/07/02 01:39:34;;;;;;;4.18;2.47;;;;;;;;;;4387698;32;20339;-56
2021/07/02 01:42:00;;;;;;;5.80;2.50;;;;;;;;;;4388772;32;20234;-56
2021/07/02 01:44:26;;;;;;;5.18;2.37;;;;;;;;;;4388814;32;20627;-56
2021/07/02 01:46:51;;;;;;;7.87;2.53;;;;;;;;;;4388426;32;20237;-55
2021/07/02 01:49:17;;;;;;;6.75;2.90;;;;;;;;;;4387207;32;20300;-56
2021/07/02 01:51:42;;;;;;;7.80;3.37;;;;;;;;;;4388247;32;20246;-56
2021/07/02 01:54:08;;;;;;;21.87;2.80;;;;;;;;;;4388677;32;20239;-56
2021/07/02 01:56:33;;;;;;;9.57;3.20;;;;;;;;;;4388668;32;20330;-56
2021/07/02 01:58:59;;;;;;;6.57;2.58;;;;;;;;;;4388609;32;20233;-55
2021/07/02 02:01:24;;;;;;;10.27;2.58;;;;;;;;;;4388286;32;20725;-56
2021/07/02 02:03:53;;;;;;;9.57;2.45;;;;;;;;;;4388540;32;20272;-55
2021/07/02 02:06:19;;;;;;;5.70;2.35;;;;;;;;;;4386882;32;20332;-56
2021/07/02 02:08:45;;;;;;;10.13;2.12;;;;;;;;;;4388370;32;20202;-56
2021/07/02 02:11:11;;;;;;;16.48;3.55;;;;;;;;;;4388523;32;20625;-55
2021/07/02 02:13:36;;;;;;;12.95;2.83;;;;;;;;;;4381945;32;20259;-56
2021/07/02 02:16:02;;;;;;;4.22;2.67;;;;;;;;;;4372117;32;20264;-55
2021/07/02 02:18:27;;;;;;;5.75;2.70;;;;;;;;;;4373565;32;20210;-56
2021/07/02 02:20:53;;;;;;;6.57;2.53;;;;;;;;;;4373299;32;20242;-56
2021/07/02 02:23:18;;;;;;;4.85;2.20;;;;;;;;;;4373471;32;20308;-56
2021/07/02 02:25:43;;;;;;;8.00;2.95;;;;;;;;;;4373389;32;20249;-56
2021/07/02 02:28:09;;;;;;;3.42;2.20;;;;;;;;;;4373175;32;20536;-55
2021/07/02 02:30:36;;;;;;;9.88;2.80;;;;;;;;;;4376552;32;20658;-56
2021/07/02 02:33:04;;;;;;;5.72;2.47;;;;;;;;;;4388246;32;20218;-56
2021/07/02 02:35:31;;;;;;;7.97;2.50;;;;;;;;;;4388069;32;20210;-56
2021/07/02 02:37:56;;;;;;;6.12;1.95;;;;;;;;;;4387886;32;20329;-56
2021/07/02 02:40:21;;;;;;;6.57;2.37;;;;;;;;;;4388533;32;20727;-55
2021/07/02 02:42:47;;;;;;;8.88;2.15;;;;;;;;;;4388015;32;20279;-55
2021/07/02 02:45:12;;;;;;;12.23;3.97;;;;;;;;;;4388207;32;20303;-56
2021/07/02 02:47:38;;;;;;;8.27;3.83;;;;;;;;;;4387854;32;20234;-56
2021/07/02 02:50:05;;;;;;;7.62;4.15;;;;;;;;;;4388176;32;20285;-56
2021/07/02 02:52:30;;;;;;;10.82;4.12;;;;;;;;;;4388128;32;20218;-56
2021/07/02 02:54:56;;;;;;;7.30;3.33;;;;;;;;;;4388376;32;20295;-56
2021/07/02 02:57:21;;;;;;;5.03;1.95;;;;;;;;;;4386471;32;20241;-56
2021/07/02 02:59:47;;;;;;;6.70;2.33;;;;;;;;;;4388073;32;20643;-56
2021/07/02 03:02:13;;;;;;;8.98;2.12;;;;;;;;;;4387403;32;20233;-55
2021/07/02 03:04:38;;;;;;;7.18;2.25;;;;;;;;;;4390564;32;20531;-56
2021/07/02 03:07:05;;;;;;;4.68;2.58;;;;;;;;;;4390910;32;20221;-55
2021/07/02 03:09:31;;;;;;;6.15;2.47;;;;;;;;;;4390962;32;20222;-56
2021/07/02 03:11:56;;;;;;;5.62;2.67;;;;;;;;;;4388007;32;20598;-56
2021/07/02 03:14:22;;;;;;;6.37;2.65;;;;;;;;;;4387704;32;20222;-55
2021/07/02 03:16:49;;;;;;;3.37;2.30;;;;;;;;;;4390849;32;20256;-55
2021/07/02 03:19:15;;;;;;;6.68;2.40;;;;;;;;;;4390967;32;20296;-55
2021/07/02 03:21:41;;;;;;;6.85;2.40;;;;;;;;;;4390444;32;20238;-55
2021/07/02 03:24:07;;;;;;;3.20;1.67;;;;;;;;;;4390574;32;20786;-55
2021/07/02 03:26:33;;;;;;;5.22;2.03;;;;;;;;;;4390715;32;20349;-55
2021/07/02 03:28:59;;;;;;;3.53;1.87;;;;;;;;;;4389389;32;20688;-56
2021/07/02 03:31:24;;;;;;;5.32;1.90;;;;;;;;;;4390201;32;20253;-56
2021/07/02 03:33:50;;;;;;;6.05;2.33;;;;;;;;;;4390521;32;20664;-55
2021/07/02 03:36:15;;;;;;;7.65;2.30;;;;;;;;;;4390644;32;20317;-56
2021/07/02 03:38:41;;;;;;;6.75;2.05;;;;;;;;;;4390540;32;20230;-55
2021/07/02 03:41:07;;;;;;;8.32;2.85;;;;;;;;;;4390820;32;20248;-56
2021/07/02 03:43:32;;;;;;;8.80;2.33;;;;;;;;;;4390778;32;20205;-55
2021/07/02 03:45:58;;;;;;;7.53;2.33;;;;;;;;;;4390323;32;20222;-56
2021/07/02 03:48:23;;;;;;;4.95;3.03;;;;;;;;;;4389200;32;20261;-56
2021/07/02 03:50:49;;;;;;;9.48;2.30;;;;;;;;;;4390161;32;20648;-56
2021/07/02 03:53:15;;;;;;;5.80;2.47;;;;;;;;;;4390393;32;20559;-56
2021/07/02 03:55:41;;;;;;;8.25;2.67;;;;;;;;;;4390743;32;20249;-55
2021/07/02 03:58:06;;;;;;;8.25;3.30;;;;;;;;;;4390430;32;20374;-55
2021/07/02 04:00:32;;;;;;;4.47;2.58;;;;;;;;;;4389880;32;20213;-56
2021/07/02 04:02:57;;;;;;;8.95;3.55;;;;;;;;;;4390049;32;20201;-55
2021/07/02 04:05:23;;;;;;;7.50;2.55;;;;;;;;;;4389954;32;20272;-55
2021/07/02 04:07:48;;;;;;;5.32;2.72;;;;;;;;;;4389987;32;20221;-55
2021/07/02 04:10:14;;;;;;;6.55;2.45;;;;;;;;;;4390562;32;20397;-55
2021/07/02 04:12:39;;;;;;;19.08;2.97;;;;;;;;;;4385180;32;20263;-55
2021/07/02 04:15:07;;;;;;;7.28;2.05;;;;;;;;;;4387720;32;20346;-56
2021/07/02 04:17:32;;;;;;;10.30;3.50;;;;;;;;;;4389973;32;20288;-56
2021/07/02 04:19:58;;;;;;;7.95;2.33;;;;;;;;;;4388630;32;20308;-56
2021/07/02 04:22:23;;;;;;;8.13;2.72;;;;;;;;;;4389988;32;20247;-56
2021/07/02 04:24:49;;;;;;;5.32;2.72;;;;;;;;;;4390369;32;20210;-55
2021/07/02 04:27:16;;;;;;;13.23;3.17;;;;;;;;;;4390069;32;20229;-56
2021/07/02 04:29:43;;;;;;;5.50;2.70;;;;;;;;;;4389813;32;20682;-55
2021/07/02 04:32:09;;;;;;;7.85;2.53;;;;;;;;;;4389657;32;20252;-55
2021/07/02 04:34:34;;;;;;;3.92;2.65;;;;;;;;;;4389771;32;20205;-55
2021/07/02 04:37:00;;;;;;;7.15;3.00;;;;;;;;;;4389901;32;20232;-55
2021/07/02 04:39:25;;;;;;;8.00;3.45;;;;;;;;;;4388350;32;20316;-55
2021/07/02 04:41:51;;;;;;;5.90;2.78;;;;;;;;;;4389472;32;20247;-54
2021/07/02 04:44:16;;;;;;;5.53;3.53;;;;;;;;;;4389472;32;20249;-55
2021/07/02 04:46:42;;;;;;;6.07;3.17;;;;;;;;;;4389215;32;20274;-55
2021/07/02 04:49:07;;;;;;;6.25;3.78;;;;;;;;;;4389303;32;20261;-55
2021/07/02 04:51:33;;;;;;;9.18;4.00;;;;;;;;;;4389510;32;20269;-55
2021/07/02 04:53:58;;;;;;;5.43;3.70;;;;;;;;;;4388528;32;20238;-55
2021/07/02 04:56:24;;;;;;;5.95;4.85;;;;;;;;;;4389369;32;20217;-54
2021/07/02 04:58:54;;;;;;;5.37;3.87;;;;;;;;;;4389805;32;20213;-56
2021/07/02 05:01:23;;;;;;;6.93;4.37;;;;;;;;;;4389751;32;20270;-56
2021/07/02 05:03:50;;;;;;;7.28;3.97;;;;;;;;;;4389340;32;20279;-55
2021/07/02 05:06:16;;;;;;;6.40;3.90;;;;;;;;;;4389582;32;20272;-56
2021/07/02 05:08:42;;;;;;;6.18;4.07;;;;;;;;;;4389276;32;20218;-56
2021/07/02 05:11:09;;;;;;;8.07;3.80;;;;;;;;;;4388667;32;20293;-56
2021/07/02 05:13:39;;;;;;;5.70;4.00;;;;;;;;;;4381937;32;20203;-56
2021/07/02 05:16:06;;;;;;;8.52;5.62;;;;;;;;;;4379754;32;20230;-56
2021/07/02 05:18:31;;;;;;;7.75;4.03;;;;;;;;;;4383562;32;20662;-55
2021/07/02 05:20:57;;;;;;;5.45;4.53;;;;;;;;;;4377543;32;20256;-56
2021/07/02 05:23:22;;;;;;;5.47;4.28;;;;;;;;;;4386864;32;20422;-55
2021/07/02 05:25:48;;;;;;;5.40;4.47;;;;;;;;;;4386939;32;20332;-56
2021/07/02 05:28:13;;;;;;;5.85;4.53;;;;;;;;;;4386641;32;20343;-56
2021/07/02 05:30:39;;;;;;;10.35;5.43;;;;;;;;;;4388908;32;20271;-56
2021/07/02 05:33:04;;;;;;;5.72;5.12;;;;;;;;;;4387770;32;20564;-57
2021/07/02 05:35:30;;;;;;;5.82;4.20;;;;;;;;;;4380129;32;20293;-55
2021/07/02 05:37:55;;;;;;;8.20;4.85;;;;;;;;;;4373265;32;20297;-55
2021/07/02 05:40:21;;;;;;;5.03;4.18;;;;;;;;;;4373314;32;20312;-55
2021/07/02 05:42:47;;;;;;;7.78;5.18;;;;;;;;;;4384634;32;20296;-55
2021/07/02 05:45:12;;;;;;;7.40;4.95;;;;;;;;;;4372883;32;20281;-55
2021/07/02 05:47:50;;;;;;;6.57;5.50;;;;;;;;;;4373088;32;20559;-55
2021/07/02 05:50:17;;;;;;;8.32;4.65;;;;;;;;;;4374925;32;20295;-55
2021/07/02 05:52:43;;;;;;;8.23;5.03;;;;;;;;;;4377649;32;20248;-56
2021/07/02 05:55:09;;;;;;;9.27;5.43;;;;;;;;;;4373403;32;20270;-55
2021/07/02 05:57:34;;;;;;;5.80;5.20;;;;;;;;;;4372030;32;20321;-56
2021/07/02 06:00:00;;;;;;;9.90;4.95;;;;;;;;;;4371514;32;20327;-55
2021/07/02 06:02:25;;;;;;;7.25;4.68;;;;;;;;;;4369506;32;20345;-56
2021/07/02 06:04:51;;;;;;;6.90;5.18;;;;;;;;;;4382888;32;20244;-56
2021/07/02 06:07:16;;;;;;;8.60;5.35;;;;;;;;;;4384891;32;20319;-56
2021/07/02 06:09:42;;;;;;;6.25;5.43;;;;;;;;;;4387236;32;20198;-56
2021/07/02 06:12:07;;;;;;;8.25;5.32;;;;;;;;;;4380616;32;20256;-56
2021/07/02 06:14:33;;;;;;;6.82;4.75;;;;;;;;;;4376306;32;20233;-56
2021/07/02 06:16:59;;;;;;;5.65;5.03;;;;;;;;;;4376635;32;20372;-56
2021/07/02 06:19:24;;;;;;;5.65;4.78;;;;;;;;;;4380490;32;20233;-56
2021/07/02 06:21:50;;;;;;;5.12;4.43;;;;;;;;;;4385476;32;20246;-56
2021/07/02 06:24:15;;;;;;;5.60;5.10;;;;;;;;;;4385418;32;20375;-56
2021/07/02 06:26:41;;;;;;;9.48;5.32;;;;;;;;;;4380300;32;20213;-57
2021/07/02 06:29:07;;;;;;;5.37;3.97;;;;;;;;;;4385736;32;20238;-56
2021/07/02 06:31:32;;;;;;;7.25;5.12;;;;;;;;;;4385743;32;20241;-56
2021/07/02 06:33:58;;;;;;;5.28;4.75;;;;;;;;;;4385403;32;20680;-57
2021/07/02 06:36:23;;;;;;;7.43;5.30;;;;;;;;;;4387252;32;20249;-55
2021/07/02 06:38:49;;;;;;;10.40;5.87;;;;;;;;;;4386771;32;20550;-56
2021/07/02 06:41:14;;;;;;;12.30;6.07;;;;;;;;;;4387153;32;20571;-56
2021/07/02 06:43:40;;;;;;;8.93;5.45;;;;;;;;;;4386707;32;20276;-56
2021/07/02 06:46:05;;;;;;;12.40;5.62;;;;;;;;;;4386667;32;20958;-56
2021/07/02 06:48:31;;;;;;;6.47;5.32;;;;;;;;;;4376639;32;20261;-56
2021/07/02 06:50:56;;;;;;;6.25;5.53;;;;;;;;;;4385314;32;20390;-55
2021/07/02 06:53:23;;;;;;;7.87;4.87;;;;;;;;;;4386841;32;20257;-56
2021/07/02 06:55:48;;;;;;;9.90;5.35;;;;;;;;;;4386978;32;20252;-55
2021/07/02 06:58:14;;;;;;;5.25;4.72;;;;;;;;;;4385379;32;20720;-55
2021/07/02 07:00:40;;;;;;;6.85;4.80;;;;;;;;;;4386441;32;20214;-56
2021/07/02 07:03:08;;;;;;;7.72;5.68;;;;;;;;;;4379118;32;20300;-55
2021/07/02 07:05:35;;;;;;;6.15;5.55;;;;;;;;;;4380456;32;20651;-56
2021/07/02 07:08:02;;;;;;;6.00;4.97;;;;;;;;;;4374124;32;20241;-56
2021/07/02 07:10:30;;;;;;;7.07;5.53;;;;;;;;;;4377292;32;20246;-55
2021/07/02 07:12:59;;;;;;;6.10;5.20;;;;;;;;;;4381669;32;20631;-56
2021/07/02 07:15:25;;;;;;;6.75;5.78;;;;;;;;;;4372377;32;20239;-55
2021/07/02 07:17:51;;;;;;;6.28;5.12;;;;;;;;;;4371207;32;20591;-56
2021/07/02 07:20:17;;;;;;;6.90;5.10;;;;;;;;;;4371779;32;20372;-56
2021/07/02 07:22:42;;;;;;;5.90;5.00;;;;;;;;;;4371298;32;20238;-56
2021/07/02 07:25:08;;;;;;;7.55;5.20;;;;;;;;;;4377330;32;20374;-56
2021/07/02 07:27:35;;;;;;;7.70;4.57;;;;;;;;;;4382674;32;20455;-57
2021/07/02 07:30:01;;;;;;;6.90;4.45;;;;;;;;;;4379525;32;20322;-56
2021/07/02 07:32:27;;;;;;;7.85;4.70;;;;;;;;;;4386127;32;20696;-56
2021/07/02 07:37:22;;;;;;;6.57;3.97;;;;;;;;;;4380383;32;20665;-55
2021/07/02 07:39:49;;;;;;;6.53;5.37;;;;;;;;;;4376928;32;20262;-55
2021/07/02 07:42:15;;;;;;;6.10;4.30;;;;;;;;;;4378746;32;20590;-55
2021/07/02 07:44:40;;;;;;;5.28;4.35;;;;;;;;;;4381331;32;20272;-55
2021/07/02 07:47:06;;;;;;;6.45;4.10;;;;;;;;;;4371225;32;20382;-55
2021/07/02 07:49:32;;;;;;;5.57;4.12;;;;;;;;;;4371555;32;20351;-55
2021/07/02 07:54:23;;;;;;;6.87;4.15;;;;;;;;;;4374206;32;20226;-56
2021/07/02 07:56:51;;;;;;;5.87;3.70;;;;;;;;;;4376713;32;20275;-56
2021/07/02 07:59:27;;;;;;;4.43;4.00;;;;;;;;;;4387522;32;20318;-56
2021/07/02 08:01:53;;;;;;;4.32;3.50;;;;;;;;;;4388979;32;20252;-56
2021/07/02 08:04:18;;;;;;;4.15;3.72;;;;;;;;;;4388773;32;20842;-56
2021/07/02 08:06:45;;;;;;;4.35;3.28;;;;;;;;;;4389030;32;20279;-56
2021/07/02 08:09:11;;;;;;;5.62;3.60;;;;;;;;;;4387430;32;20247;-56
2021/07/02 08:11:38;;;;;;;4.22;3.83;;;;;;;;;;4388702;32;20268;-55
2021/07/02 08:14:05;;;;;;;6.00;3.25;;;;;;;;;;4388115;32;20242;-55
2021/07/02 08:16:31;;;;;;;4.85;3.20;;;;;;;;;;4383080;32;20374;-56
2021/07/02 08:18:56;;;;;;;8.50;3.47;;;;;;;;;;4381247;32;20285;-56
2021/07/02 08:21:22;;;;;;;4.10;3.28;;;;;;;;;;4373616;32;20250;-56
2021/07/02 08:23:47;;;;;;;5.55;3.35;;;;;;;;;;4373810;32;20557;-56
2021/07/02 08:26:13;;;;;;;3.67;3.37;;;;;;;;;;4373518;32;20214;-56
2021/07/02 08:31:23;;;;;;;4.28;3.45;;;;;;;;;;4381278;32;20291;-57
2021/07/02 08:33:49;;;;;;;4.43;3.35;;;;;;;;;;4388378;32;20714;-56
2021/07/02 08:36:15;;;;;;;11.45;3.40;;;;;;;;;;4388621;32;20267;-56
2021/07/02 08:38:40;;;;;;;3.62;3.22;;;;;;;;;;4387361;32;20258;-56
2021/07/02 08:41:11;;;;;;;7.03;3.78;;;;;;;;;;4379615;32;20694;-55
2021/07/02 08:43:37;;;;;;;6.25;2.58;;;;;;;;;;4381739;32;20393;-56
2021/07/02 08:46:03;;;;;;;9.93;2.90;;;;;;;;;;4379171;32;20236;-57
2021/07/02 08:48:30;;;;;;;2.87;2.40;;;;;;;;;;4384467;32;20694;-56
2021/07/02 08:50:55;;;;;;;4.85;2.95;;;;;;;;;;4387047;32;20271;-56
2021/07/02 08:53:21;;;;;;;5.55;3.03;;;;;;;;;;4383226;32;20230;-56
2021/07/02 08:55:47;;;;;;;3.55;3.22;;;;;;;;;;4383688;32;20309;-56
2021/07/02 08:58:14;;;;;;;6.55;3.00;;;;;;;;;;4388258;32;20210;-56
2021/07/02 09:00:41;;;;;;;5.35;3.20;;;;;;;;;;4377762;32;20311;-56
2021/07/02 09:03:31;;;;;;;3.05;2.72;;;;;;;;;;4377219;32;20340;-55
2021/07/02 09:06:18;;;;;;;4.10;2.75;;;;;;;;;;4376198;32;20313;-56
2021/07/02 09:09:01;;;;;;;7.65;2.97;;;;;;;;;;4372740;32;20273;-55
2021/07/02 09:11:31;;;;;;;3.72;2.95;;;;;;;;;;4372826;32;20675;-56
2021/07/02 09:13:57;;;;;;;4.07;2.90;;;;;;;;;;4386657;32;20317;-56
2021/07/02 09:16:25;;;;;;;2.85;2.17;;;;;;;;;;4378756;32;20260;-56
2021/07/02 09:18:52;;;;;;;3.83;2.95;;;;;;;;;;4380930;32;20238;-56
2021/07/02 09:21:28;;;;;;;3.00;2.55;;;;;;;;;;4372764;32;20247;-56
2021/07/02 09:23:57;;;;;;;3.37;2.95;;;;;;;;;;4372766;32;20388;-56
2021/07/02 09:26:39;;;;;;;3.65;2.90;;;;;;;;;;4372668;32;20295;-56
2021/07/02 09:29:20;;;;;;;5.60;2.85;;;;;;;;;;4372388;32;20225;-56
2021/07/02 09:32:04;;;;;;;3.72;2.75;;;;;;;;;;4383030;32;20283;-56
2021/07/02 09:34:54;;;;;;;4.78;2.28;;;;;;;;;;4387674;32;20627;-56
2021/07/02 09:37:29;;;;;;;3.45;2.75;;;;;;;;;;4378721;32;20236;-56
2021/07/02 09:39:55;;;;;;;4.97;2.80;;;;;;;;;;4372598;32;20273;-56
2021/07/02 09:42:27;;;;;;;2.95;2.70;;;;;;;;;;4372798;32;20213;-56
2021/07/02 09:45:07;;;;;;;3.15;2.62;;;;;;;;;;4378887;32;20278;-56
2021/07/02 09:47:33;;;;;;;3.53;2.50;;;;;;;;;;4381649;32;20261;-55
2021/07/02 09:50:27;;;;;;;3.37;2.75;;;;;;;;;;4387531;32;20587;-56
2021/07/02 09:52:55;;;;;;;2.83;2.33;;;;;;;;;;4387214;32;20521;-57
2021/07/02 09:55:23;;;;;;;2.22;1.83;;;;;;;;;;4387314;32;20547;-57
2021/07/02 09:57:53;;;;;;;4.40;2.12;;;;;;;;;;4386808;32;20280;-56
2021/07/02 10:00:19;;;;;;;2.65;2.22;;;;;;;;;;4387058;32;20524;-57
2021/07/02 10:02:53;;;;;;;4.03;3.03;;;;;;;;;;4387165;32;20226;-57
2021/07/02 10:05:18;;;;;;;4.43;3.00;;;;;;;;;;4387459;32;20201;-56
2021/07/02 10:08:04;;;;;;;4.60;2.22;;;;;;;;;;4385944;32;20314;-56
2021/07/02 10:10:30;;;;;;;3.22;2.60;;;;;;;;;;4372866;32;20202;-56
2021/07/02 10:12:57;;;;;;;3.20;2.37;;;;;;;;;;4382565;32;20476;-56
2021/07/02 10:15:23;;;;;;;4.65;2.72;;;;;;;;;;4383971;32;20257;-56
2021/07/02 10:17:50;;;;;;;2.30;2.05;;;;;;;;;;4386857;32;20201;-55
2021/07/02 10:20:16;;;;;;;4.18;2.62;;;;;;;;;;4385675;32;20568;-55
2021/07/02 10:22:45;;;;;;;3.28;2.53;;;;;;;;;;4372298;32;20244;-56
2021/07/02 10:25:18;;;;;;;5.40;2.47;;;;;;;;;;4372184;32;20256;-57
2021/07/02 10:27:45;;;;;;;3.25;1.98;;;;;;;;;;4372129;32;20264;-56
2021/07/02 10:30:10;;;;;;;10.10;2.47;;;;;;;;;;4372675;32;20244;-56
2021/07/02 10:32:38;;;;;;;6.30;2.30;;;;;;;;;;4384250;32;20206;-57
2021/07/02 10:35:05;;;;;;;4.62;2.45;;;;;;;;;;4372156;32;20318;-56
2021/07/02 10:37:31;;;;;;;2.40;1.98;;;;;;;;;;4371759;32;20610;-57
2021/07/02 10:39:59;;;;;;;3.10;1.83;;;;;;;;;;4371663;32;20292;-58
2021/07/02 10:42:25;;;;;;;2.37;2.17;;;;;;;;;;4382009;32;20218;-56
2021/07/02 10:44:53;;;;;;;4.28;2.15;;;;;;;;;;4378207;32;20236;-56
2021/07/02 10:47:20;;;;;;;10.07;1.90;;;;;;;;;;4378685;32;20311;-57
2021/07/02 10:49:46;;;;;;;2.65;2.28;;;;;;;;;;4381812;32;20472;-56
2021/07/02 10:52:25;;;;;;;3.50;1.92;;;;;;;;;;4379811;32;20574;-56
2021/07/02 10:54:53;;;;;;;3.78;1.90;;;;;;;;;;4371505;32;20206;-57
2021/07/02 10:57:23;;;;;;;2.30;2.10;;;;;;;;;;4384545;32;20374;-56
2021/07/02 10:59:49;;;;;;;2.30;1.83;;;;;;;;;;4386991;32;20345;-56
2021/07/02 11:02:20;;;;;;;2.12;1.67;;;;;;;;;;4386489;32;20270;-57
2021/07/02 11:04:56;;;;;;;1.60;1.50;;;;;;;;;;4386447;32;20244;-57
2021/07/02 11:07:22;;;;;;;3.62;1.37;;;;;;;;;;4372668;32;20225;-57
2021/07/02 11:09:59;;;;;;;2.15;1.50;;;;;;;;;;4371422;32;20358;-57
2021/07/02 11:12:25;;;;;;;3.70;1.50;;;;;;;;;;4371205;32;20242;-56
2021/07/02 11:17:29;;;;;;;3.22;1.37;;;;;;;;;;4378511;32;20267;-57
2021/07/02 11:20:10;;;;;;;2.25;1.50;;;;;;;;;;4386300;32;20842;-56
2021/07/02 11:22:45;;;;;;;2.58;1.67;;;;;;;;;;4386621;32;20253;-56
2021/07/02 11:25:19;;;;;;;2.05;1.85;;;;;;;;;;4389100;32;20267;-56
2021/07/02 11:28:00;;;;;;;1.60;1.45;;;;;;;;;;4389030;32;20714;-57
2021/07/02 11:30:35;;;;;;;2.62;1.60;;;;;;;;;;4376086;32;20312;-57
2021/07/02 11:33:04;;;;;;;2.30;1.62;;;;;;;;;;4384005;32;20411;-56
2021/07/02 11:35:33;;;;;;;1.95;1.52;;;;;;;;;;4381141;32;20246;-56
2021/07/02 11:38:06;;;;;;;1.30;1.20;;;;;;;;;;4385568;32;20616;-56
2021/07/02 11:40:33;;;;;;;1.30;1.20;;;;;;;;;;4389392;32;20237;-56
2021/07/02 11:43:00;;;;;;;1.83;1.45;;;;;;;;;;4388986;32;20392;-56
2021/07/02 11:45:43;;;;;;;4.03;1.27;;;;;;;;;;4389374;32;20682;-56
2021/07/02 11:48:27;;;;;;;1.92;1.20;;;;;;;;;;4090621;32;20287;-57
2021/07/02 11:50:58;;;;;;;1.95;1.27;;;;;;;;;;3542420;34;20316;-56
2021/07/02 11:53:34;;;;;;;1.35;1.25;;;;;;;;;;4127710;34;20253;-57
2021/07/02 11:56:09;;;;;;;1.40;1.30;;;;;;;;;;4174133;34;20222;-57
2021/07/02 11:58:41;;;;;;;2.08;1.08;;;;;;;;;;4173173;34;20229;-58
2021/07/02 12:01:24;;;;;;;3.15;1.45;;;;;;;;;;4174480;34;20698;-57
2021/07/02 12:03:52;;;;;;;2.33;1.65;;;;;;;;;;4173920;34;20640;-56
2021/07/02 12:06:25;;;;;;;2.67;1.60;;;;;;;;;;4174328;34;20223;-56
2021/07/02 12:09:18;;;;;;;3.08;1.58;;;;;;;;;;4173487;34;20270;-56
2021/07/02 12:11:45;;;;;;;2.00;1.60;;;;;;;;;;4174233;34;20710;-56
2021/07/02 12:14:14;;;;;;;1.83;1.48;;;;;;;;;;4183968;34;20298;-56
2021/07/02 12:16:44;;;;;;;10.70;1.62;;;;;;;;;;4181903;34;20215;-57
2021/07/02 12:19:15;;;;;;;2.37;1.40;;;;;;;;;;4178149;34;20219;-56
2021/07/02 12:21:50;;;;;;;1.55;1.23;;;;;;;;;;4173561;34;20305;-56
2021/07/02 12:24:21;;;;;;;2.50;1.83;;;;;;;;;;4173746;34;20287;-56
2021/07/02 12:26:51;;;;;;;2.95;1.55;;;;;;;;;;4174141;34;20306;-57
2021/07/02 12:29:17;;;;;;;1.58;1.37;;;;;;;;;;4173905;34;20622;-56
2021/07/02 12:31:47;;;;;;;2.20;1.60;;;;;;;;;;4173963;34;20246;-56
2021/07/02 12:34:16;;;;;;;1.70;1.37;;;;;;;;;;4184209;34;20331;-56
2021/07/02 12:36:57;;;;;;;1.37;1.25;;;;;;;;;;4173671;34;20390;-56
2021/07/02 12:39:29;;;;;;;1.95;1.60;;;;;;;;;;4173645;34;20748;-56
2021/07/02 12:41:55;;;;;;;2.17;1.42;;;;;;;;;;4173827;34;20224;-57
2021/07/02 12:44:23;;;;;;;2.58;1.60;;;;;;;;;;4173443;34;20199;-57
2021/07/02 12:46:49;;;;;;;1.85;1.37;;;;;;;;;;4173608;34;20304;-56
2021/07/02 12:49:17;;;;;;;2.20;1.42;;;;;;;;;;4173557;34;20685;-58
2021/07/02 12:51:59;;;;;;;1.73;1.48;;;;;;;;;;4171537;34;20293;-57
2021/07/02 12:57:20;;;;;;;2.15;1.30;;;;;;;;;;4013107;34;20400;-57
2021/07/02 13:03:21;;;;;;;1.62;1.42;;;;;;;;;;4424353;32;20845;-56
2021/07/02 13:05:46;;;;;;;1.65;1.20;;;;;;;;;;4414676;32;20235;-57
2021/07/02 13:08:13;;;;;;;2.95;1.87;;;;;;;;;;4415494;32;20205;-57
2021/07/02 13:10:41;;;;;;;2.35;1.50;;;;;;;;;;4415414;32;20461;-57
2021/07/02 13:13:15;;;;;;;1.77;1.37;;;;;;;;;;4414836;32;20213;-57
2021/07/02 13:15:46;;;;;;;1.20;1.10;;;;;;;;;;4415047;32;20214;-56
2021/07/02 13:18:23;;;;;;;1.30;1.20;;;;;;;;;;4415355;32;20278;-56
2021/07/02 13:20:57;;;;;;;1.17;1.08;;;;;;;;;;4415547;32;20667;-57
2021/07/02 13:23:25;;;;;;;1.48;1.17;;;;;;;;;;4400197;32;20546;-57
2021/07/02 13:26:08;;;;;;;1.87;0.90;;;;;;;;;;4399931;32;20222;-57
2021/07/02 13:28:39;;;;;;;0.80;0.80;;;;;;;;;;4399792;32;20622;-55
2021/07/02 13:31:50;;;;;;;1.87;0.93;;;;;;;;;;4402390;32;20292;-56
2021/07/02 13:34:18;;;;;;;3.62;1.12;;;;;;;;;;4393385;32;20597;-56
2021/07/02 13:37:02;;;;;;;0.77;0.68;;;;;;;;;;4399975;32;20222;-56
2021/07/02 13:39:38;;;;;;;1.20;1.00;;;;;;;;;;4399489;32;20228;-57
2021/07/02 13:42:10;;;;;;;2.40;0.90;;;;;;;;;;4399805;32;20267;-57
2021/07/02 13:45:01;;;;;;;2.33;1.00;;;;;;;;;;4399961;32;20293;-56
2021/07/02 13:47:35;;;;;;;1.83;1.45;;;;;;;;;;4398228;32;20776;-58
2021/07/02 13:50:01;;;;;;;0.95;0.85;;;;;;;;;;4398273;32;20284;-56
2021/07/02 13:52:29;;;;;;;1.20;1.10;;;;;;;;;;4401855;32;20253;-56
2021/07/02 13:54:58;;;;;;;1.80;0.90;;;;;;;;;;4413797;32;20411;-57
2021/07/02 13:57:24;;;;;;;0.90;0.80;;;;;;;;;;4414613;32;20213;-58
2021/07/02 13:59:50;;;;;;;1.00;0.90;;;;;;;;;;4413419;32;20308;-57
2021/07/02 14:02:15;;;;;;;1.37;1.05;;;;;;;;;;4404015;32;20333;-57
2021/07/02 14:04:41;;;;;;;1.15;0.80;;;;;;;;;;4414850;32;20303;-57
2021/07/02 14:07:07;;;;;;;1.08;0.77;;;;;;;;;;4414627;32;20655;-57
2021/07/02 14:09:34;;;;;;;3.97;1.15;;;;;;;;;;4406700;32;20201;-57
2021/07/02 14:11:59;;;;;;;1.27;1.00;;;;;;;;;;4399368;32;20588;-56
2021/07/02 14:14:25;;;;;;;0.70;0.70;;;;;;;;;;4388830;32;20387;-56
2021/07/02 14:16:51;;;;;;;1.10;1.00;;;;;;;;;;4402595;32;20906;-56
2021/07/02 14:19:16;;;;;;;3.08;0.73;;;;;;;;;;4402746;32;20685;-58
2021/07/02 14:21:42;;;;;;;1.27;0.80;;;;;;;;;;4402948;32;20272;-57
2021/07/02 14:24:11;;;;;;;1.30;0.75;;;;;;;;;;4403076;32;20635;-56
2021/07/02 14:26:37;;;;;;;1.25;0.90;;;;;;;;;;4403918;32;20297;-56
2021/07/02 14:29:06;;;;;;;1.23;0.70;;;;;;;;;;4403838;32;20594;-56
2021/07/02 14:31:32;;;;;;;0.95;0.85;;;;;;;;;;4397126;32;20237;-57
2021/07/02 14:33:58;;;;;;;0.70;0.70;;;;;;;;;;4388407;32;20259;-57
2021/07/02 14:36:24;;;;;;;1.20;0.60;;;;;;;;;;4387324;32;20341;-56
2021/07/02 14:38:49;;;;;;;0.52;0.50;;;;;;;;;;4388662;32;20566;-56
2021/07/02 14:41:18;;;;;;;5.12;3.00;;;;;;;;;;4392201;32;20264;-56
2021/07/02 14:43:43;;;;;;;3.70;1.33;;;;;;;;;;4395562;32;20237;-56
2021/07/02 14:46:09;;;;;;;1.10;0.80;;;;;;;;;;4394913;32;20307;-55
2021/07/02 14:48:34;;;;;;;1.77;0.70;;;;;;;;;;4396079;32;20318;-57
2021/07/02 14:51:02;;;;;;;3.35;1.25;;;;;;;;;;4394254;32;20234;-57
2021/07/02 14:53:27;;;;;;;0.70;0.70;;;;;;;;;;4390663;32;20367;-57
2021/07/02 14:55:53;;;;;;;0.80;0.75;;;;;;;;;;4387885;32;20236;-56
2021/07/02 14:58:19;;;;;;;2.47;1.15;;;;;;;;;;4387866;32;20295;-58
2021/07/02 15:00:45;;;;;;;2.72;1.02;;;;;;;;;;4387908;32;20677;-56
2021/07/02 15:03:11;;;;;;;0.93;0.70;;;;;;;;;;4388238;32;20295;-56
2021/07/02 15:05:37;;;;;;;0.60;0.60;;;;;;;;;;4387914;32;20633;-56